Aviation Digital Data Service (ADDS)

Output produced by METARs form (1934 UTC 19 April 2014)
found at http://aviationweather.gov/adds/metars/
 
KVQQ 191721Z 1918/2018 22005KT P6SM VCSH SCT010 BKN020 
     TEMPO 1918/1920 BKN010 
     FM192000 34008KT P6SM VCSH OVC010 
     TEMPO 1920/1924 4SM -DZ BR 
     FM200300 33011KT P6SM OVC008 
     FM201000 35013KT P6SM OVC010 
     FM201300 36015G23KT P6SM BKN015